Kuurne, Belgium

19:14 CET le 08 décembre 2016 (GMT +0100)
Anne Frankstraat | | Change Station

Alt. 98 ft 50.82 °N, 3.25 °E | Updated 2 minutes ago

Nuageux
Nuageux
46.0 ° F
Paraît 46 ° F
N
1.2
Vent Variable Vent de SE
Gusts 5.6 mph

Aujourd'hui
Haut(e) -- | Bas -- ° F
--% Risque de précip.
Hier
Haut(e) -- | Bas -- ° F
Precip. -- pouce
Pression 30.36 pouce
Visibilité 6.2 Miles terrestres
Nuages Nuageux 3600 ft
Refroidissement éolien 46 ° F
Point de rosée 42 ° F
Humidité 87%
Précipitations 0.00 pouce
Profondeur de la couche neigeuse Non disponible.
8:36 AM 4:41 PM
Lune gibbeuse croissante, 65% visible
METAR EBCV 081755Z AUTO 20009KT 9999 BKN036/// 07/03 Q1028 BLU
Pression 30.36 pouce
Visibilité 6.2 Miles terrestres
Nuages Nuageux 3600 ft
Refroidissement éolien 46 ° F
Point de rosée 42 ° F
Humidité 87%
Précipitations 0.00 pouce
Profondeur de la couche neigeuse Non disponible.
8:36 AM 4:41 PM
Lune gibbeuse croissante, 65% visible
METAR EBCV 081755Z AUTO 20009KT 9999 BKN036/// 07/03 Q1028 BLU

10-Day Weather Forecast

×

Almanac

Astronomie

Dec. 08, 2016 Lever Coucher
Temps réel
Crépuscule civil
Crépuscule nautique
Crépuscule astronomique
Lune
Durée de lumière visible
Longueur du jour
Tomorrow will be .
, % of the Moon is Illuminated

Extrêmes aujourd'hui

Country Highs Country Lows

Community

WunderPhotos

Upload Photos

1,956,277 Photos téléchargées !

WunderBlog® & News

Nearby

Qualité de l'air

  Qualité de l'air Indice de la qualité de l'air Polluant
Not available.

Épaisseur de neige

Station Depth Altitude

Activité sismique

Ville Distance Mag. Time & Date
Minimum magnitude displayed is 2.5.

Températures des eaux côtières

Lieu Température

Stations

Stations météo à proximité

Emplacement de la station Température Refroidissement éolien Point de rosée Humidité Vent Precip. Alt. Mise à jour Type